Latest Weather Observations for Broken Hill Airport

IDN60801

Issued at 11:35 am EST Saturday 20 September 2014 (issued every 30 minutes, with the page automatically refreshed every 10 minutes)

About weather observations | Map of weather stations | Latest weather observations for NSW | Other Formats
Station Details ID: 047048 Name: BROKEN HILL AIRPORT AWS Lat: -32.00 Lon: 141.47 Height: 281.3 m
Data from the previous 72 hours. | See also: Recent months for locations in New South Wales
Date/Time
EST
Temp
°C
App
Temp
°C
Dew
Point
Rel
Hum
%
Delta-T
°C
Wind Press
QNH
hPa
Press
MSL
hPa
Rain
since 9 am
mm
Dir
 
Spd
km/h
Gust
km/h
Spd
kts
Gust
kts
20/11:30am 18.1 13.3 -2.8 24 8.6 SSE 13 26 7 14 1026.5 1026.3 0.0
20/11:00am 17.3 13.0 -1.9 27 8.0 SSE 11 19 6 10 1026.8 1026.5 0.0
20/10:30am 16.9 12.1 -2.2 27 8.0 ENE 13 20 7 11 1027.0 1026.7 0.0
20/10:00am 16.9 12.5 -2.2 27 7.9 E 11 22 6 12 1027.1 1026.8 0.0
20/09:30am 16.2 10.7 -1.8 29 7.5 E 17 20 9 11 1027.1 1026.8 0.0
20/09:00am 15.5 10.8 -2.0 30 7.2 ENE 13 17 7 9 1026.9 1026.6 0.0
20/08:30am 15.1 10.4 -1.5 32 6.9 E 13 15 7 8 1026.4 1026.2 0.0
20/08:00am 13.6 9.9 -0.1 39 5.8 ENE 9 11 5 6 1026.1 1025.8 0.0
20/07:30am 9.3 7.2 -0.8 49 4.0 CALM 0 2 0 1 1025.7 1025.4 0.0
20/07:00am 5.7 3.5 -1.9 58 2.8 CALM 0 0 0 0 1025.5 1025.2 0.0
20/06:30am 3.6 1.1 -3.9 58 2.6 NNE 0 0 0 0 1025.2 1024.9 0.0
20/06:00am 7.0 4.3 -2.7 50 3.6 NNE 2 6 1 3 1025.0 1024.7 0.0
20/05:30am 8.1 5.5 -2.0 49 3.9 ESE 2 6 1 3 1024.4 1024.1 0.0
20/05:00am 8.3 5.3 -2.0 48 3.9 ESE 4 7 2 4 1024.1 1023.8 0.0
20/04:30am 8.5 6.2 -2.1 47 4.1 CALM 0 6 0 3 1023.7 1023.4 0.0
20/04:00am 7.2 5.0 -1.5 54 3.3 CALM 0 0 0 0 1023.7 1023.4 0.0
20/03:30am 8.7 5.2 -1.7 48 4.0 E 7 11 4 6 1023.8 1023.5 0.0
20/03:00am 7.7 3.4 -2.0 50 3.7 ESE 11 15 6 8 1023.6 1023.3 0.0
20/02:30am 7.1 2.4 -2.1 52 3.5 ESE 13 17 7 9 1023.7 1023.4 0.0
20/02:00am 7.6 2.8 -2.4 49 3.7 SE 13 13 7 7 1023.9 1023.6 0.0
20/01:30am 8.4 4.7 -2.5 46 4.1 ESE 7 9 4 5 1024.1 1023.8 0.0
20/01:00am 8.1 4.0 -2.8 46 4.1 ESE 9 13 5 7 1024.2 1023.9 0.0
20/12:30am 9.2 4.8 -2.1 45 4.3 ESE 11 13 6 7 1024.3 1024.0 0.0
20/12:00am 8.5 3.8 -2.1 47 4.0 E 13 15 7 8 1024.0 1023.7 0.0
 
Date/Time
EST
Temp
°C
App
Temp
°C
Dew
Point
Rel
Hum
%
Delta-T
°C
Wind Press
QNH
hPa
Press
MSL
hPa
Rain
since 9 am
mm
Dir
 
Spd
km/h
Gust
km/h
Spd
kts
Gust
kts
19/11:30pm 9.0 4.7 -2.0 46 4.2 E 11 13 6 7 1024.2 1023.9 0.0
19/11:00pm 9.2 4.1 -1.8 46 4.2 E 15 17 8 9 1024.3 1024.0 0.0
19/10:30pm 9.0 3.9 -2.3 45 4.3 E 15 17 8 9 1024.5 1024.2 0.0
19/10:00pm 9.5 4.3 -2.8 42 4.7 E 15 15 8 8 1024.6 1024.3 0.0
19/09:30pm 10.2 5.5 -1.8 43 4.7 E 13 15 7 8 1024.7 1024.4 0.0
19/09:00pm 9.8 5.0 -2.5 42 4.7 E 13 15 7 8 1024.5 1024.2 0.0
19/08:30pm 11.7 6.6 -2.1 38 5.5 ESE 15 17 8 9 1024.4 1024.1 0.0
19/08:00pm 11.5 6.7 -2.3 38 5.4 SE 13 15 7 8 1024.2 1023.9 0.0
19/07:30pm 12.1 7.3 -2.9 35 5.9 SE 13 15 7 8 1023.9 1023.6 0.0
19/07:00pm 13.0 8.5 -3.3 32 6.3 SSE 11 13 6 7 1023.6 1023.3 0.0
19/06:30pm 15.1 10.3 -2.8 29 7.2 SE 13 17 7 9 1023.3 1022.9 0.0
19/06:00pm 16.7 11.9 -2.9 26 8.0 SSE 13 17 7 9 1023.1 1022.7 0.0
19/05:30pm 17.2 12.0 -3.0 25 8.3 SE 15 20 8 11 1022.6 1022.3 0.0
19/05:00pm 17.8 14.1 -3.0 24 8.6 SSW 7 9 4 5 1022.4 1022.1 0.0
19/04:30pm 18.3 14.0 -2.0 25 8.6 SE 11 22 6 12 1022.5 1022.2 0.0
19/04:00pm 18.4 14.4 -2.0 25 8.6 ESE 9 19 5 10 1022.4 1022.1 0.0
19/03:30pm 18.8 14.1 -1.6 25 8.7 WSW 13 26 7 14 1022.4 1022.1 0.0
19/03:00pm 17.9 14.0 -1.3 27 8.2 SW 9 17 5 9 1022.5 1022.2 0.0
19/02:30pm 17.2 12.5 -1.9 27 8.0 SSE 13 22 7 12 1023.0 1022.6 0.0
19/02:00pm 17.2 11.2 -1.9 27 8.0 S 20 30 11 16 1023.3 1022.9 0.0
19/01:30pm 17.8 12.8 -0.9 28 8.1 S 15 20 8 11 1023.6 1023.3 0.0
19/01:00pm 16.6 11.9 -1.5 29 7.6 SSE 13 24 7 13 1024.0 1023.7 0.0
19/12:30pm 16.9 13.0 -1.2 29 7.7 SSE 9 24 5 13 1024.5 1024.2 0.0
19/12:00pm 16.9 13.6 0.1 32 7.3 E 7 19 4 10 1024.7 1024.4 0.0
19/11:30am 16.6 11.7 -0.6 31 7.4 SSE 15 22 8 12 1025.1 1024.8 0.0
19/11:00am 15.7 11.2 -0.5 33 6.9 SE 13 20 7 11 1025.1 1024.8 0.0
19/10:30am 15.4 10.9 0.0 35 6.6 ENE 13 20 7 11 1025.3 1025.0 0.0
19/10:00am 14.8 9.2 -0.1 36 6.3 E 19 32 10 17 1025.4 1025.1 0.0
19/09:30am 14.7 9.1 -0.2 36 6.3 E 19 26 10 14 1025.4 1025.1 0.0
19/09:00am 14.2 8.6 0.1 38 6.0 E 19 24 10 13 1025.4 1025.1 0.0
19/08:30am 13.0 8.9 0.1 41 5.4 ESE 11 19 6 10 1025.2 1024.9 0.0
19/08:00am 10.9 7.6 0.3 48 4.4 S 7 11 4 6 1025.2 1024.9 0.0
19/07:30am 9.3 6.1 1.0 56 3.4 S 7 9 4 5 1025.0 1024.7 0.0
19/07:00am 8.6 6.7 0.6 57 3.2 CALM 0 0 0 0 1024.6 1024.3 0.0
19/06:30am 8.9 7.0 0.6 56 3.4 CALM 0 0 0 0 1024.2 1023.9 0.0
19/06:00am 8.7 6.7 0.2 55 3.4 CALM 0 0 0 0 1023.9 1023.6 0.0
19/05:30am 9.2 6.2 0.9 56 3.4 SW 6 7 3 4 1023.8 1023.5 0.0
19/05:00am 9.5 7.1 -0.1 51 3.9 SW 2 6 1 3 1023.6 1023.3 0.0
19/04:30am 10.0 8.0 -0.2 49 4.1 CALM 0 6 0 3 1023.5 1023.2 0.0
19/04:00am 9.8 7.5 0.4 52 3.8 SSW 2 11 1 6 1023.6 1023.3 0.0
19/03:30am 10.1 8.1 -0.4 48 4.2 CALM 0 0 0 0 1023.4 1023.1 0.0
19/03:00am 9.7 6.6 0.1 51 3.9 SSW 6 7 3 4 1023.6 1023.3 0.0
19/02:30am 10.1 8.1 -0.4 48 4.3 CALM 0 0 0 0 1023.7 1023.4 0.0
19/02:00am 10.5 7.1 -0.9 45 4.6 SE 7 11 4 6 1023.8 1023.5 0.0
19/01:30am 10.8 6.6 -0.6 45 4.6 SSE 11 15 6 8 1023.9 1023.6 0.0
19/01:00am 10.9 7.1 -0.9 44 4.7 SSE 9 11 5 6 1024.2 1023.9 0.0
19/12:30am 11.2 7.0 -0.9 43 4.9 SSE 11 13 6 7 1024.4 1024.1 0.0
19/12:00am 11.5 6.9 -1.3 41 5.1 SE 13 15 7 8 1024.4 1024.1 0.0
 
Date/Time
EST
Temp
°C
App
Temp
°C
Dew
Point
Rel
Hum
%
Delta-T
°C
Wind Press
QNH
hPa
Press
MSL
hPa
Rain
since 9 am
mm
Dir
 
Spd
km/h
Gust
km/h
Spd
kts
Gust
kts
18/11:30pm 11.9 6.9 -1.3 40 5.3 SE 15 20 8 11 1024.6 1024.3 0.0
18/11:00pm 11.9 7.3 -1.3 40 5.3 SE 13 17 7 9 1024.7 1024.4 0.0
18/10:30pm 12.2 6.4 -1.3 39 5.5 SE 19 24 10 13 1024.6 1024.3 0.0
18/10:00pm 12.4 6.4 -1.5 38 5.6 SE 20 26 11 14 1024.7 1024.4 0.0
18/09:30pm 12.7 6.7 -1.6 37 5.8 SE 20 28 11 15 1024.7 1024.4 0.0
18/09:00pm 13.0 6.7 -1.3 37 5.8 SE 22 30 12 16 1024.6 1024.3 0.0
18/08:30pm 13.3 7.4 -1.1 37 5.9 SE 20 28 11 15 1024.4 1024.1 0.0
18/08:00pm 13.3 8.7 -1.1 37 5.9 SE 13 17 7 9 1024.0 1023.7 0.0
18/07:30pm 12.8 8.2 -1.1 38 5.7 SE 13 15 7 8 1023.5 1023.2 0.0
18/07:00pm 13.4 8.7 -1.7 35 6.1 S 13 15 7 8 1023.3 1022.9 0.0
18/06:30pm 14.4 9.3 -2.1 32 6.7 SSE 15 19 8 10 1023.0 1022.6 0.0
18/06:00pm 15.4 10.0 -1.6 31 7.0 S 17 24 9 13 1023.0 1022.6 0.0
18/05:30pm 15.6 9.7 -1.9 30 7.2 S 19 28 10 15 1022.6 1022.3 0.0
18/05:00pm 16.1 9.2 -2.4 28 7.6 SSW 24 33 13 18 1022.6 1022.3 0.0
18/04:30pm 17.0 10.2 -1.6 28 7.9 SSW 24 35 13 19 1022.4 1022.1 0.0
18/04:00pm 17.5 11.4 -2.2 26 8.2 WSW 20 35 11 19 1022.5 1022.2 0.0
18/03:30pm 17.1 11.9 -2.5 26 8.1 SW 15 22 8 12 1022.4 1022.1 0.0
18/03:00pm 17.4 11.6 -1.8 27 8.1 SSW 19 24 10 13 1022.5 1022.2 0.0
18/02:30pm 17.4 10.9 -2.3 26 8.2 SW 22 32 12 17 1022.6 1022.3 0.0
18/02:00pm 16.8 10.2 -0.4 31 7.4 WSW 24 32 13 17 1023.0 1022.6 0.0
18/01:30pm 16.9 11.2 0.5 33 7.2 WSW 20 32 11 17 1023.5 1023.2 0.0
18/01:00pm 15.4 10.2 0.0 35 6.6 W 17 26 9 14 1024.1 1023.8 0.0
18/12:30pm 15.3 11.0 1.1 38 6.2 WSW 13 20 7 11 1024.5 1024.2 0.0
18/12:00pm 14.5 10.2 0.7 39 5.9 S 13 22 7 12 1024.9 1024.6 0.0
18/11:30am 13.9 10.0 1.2 42 5.5 SSE 11 22 6 12 1025.5 1025.2 0.0
18/11:00am 13.8 9.6 1.8 44 5.3 SSW 13 22 7 12 1025.7 1025.4 0.0
18/10:30am 12.7 8.1 1.4 46 4.9 SE 15 22 8 12 1026.0 1025.7 0.0
18/10:00am 12.3 8.1 1.9 49 4.5 ESE 13 20 7 11 1026.3 1026.0 0.0
18/09:30am 11.7 6.9 2.5 53 4.0 SE 17 22 9 12 1026.3 1026.1 0.0
18/09:00am 11.4 6.2 3.4 58 3.6 SE 20 26 11 14 1026.2 - 0.0
18/08:30am 10.3 5.2 3.3 62 3.1 SE 19 24 10 13 1026.1 - 0.0
18/08:00am 9.3 4.9 2.6 63 2.9 S 15 17 8 9 1026.1 - 0.0
18/07:30am 8.1 6.1 2.4 67 2.4 SSW 2 9 1 5 1025.8 - 0.0
18/07:00am 6.2 3.1 1.1 70 2.1 S 7 11 4 6 1025.3 - 0.0
18/06:30am 6.5 2.2 1.2 69 2.1 S 13 17 7 9 1025.0 1024.8 0.0
18/06:00am 7.3 2.6 1.2 65 2.5 SSE 15 20 8 11 1024.6 - 0.0
18/05:30am 7.8 2.8 1.4 64 2.6 S 17 20 9 11 1024.7 - 0.0
18/05:00am 7.7 2.7 1.5 65 2.6 S 17 22 9 12 1024.8 - 0.0
18/04:30am 6.4 2.1 1.3 70 2.1 S 13 15 7 8 1024.6 - 0.0
18/04:00am 5.1 0.8 0.9 74 1.7 SSW 13 15 7 8 1024.6 - 0.0
18/03:30am 4.7 0.2 -0.1 71 1.8 SSW 13 13 7 7 1024.3 1024.1 0.0
18/03:00am 6.1 1.4 0.6 68 2.2 SSW 15 19 8 10 1024.3 - 0.0
18/02:30am 6.1 2.5 0.4 67 2.3 SSW 9 11 5 6 1024.3 - 0.0
18/02:00am 6.6 2.6 0.7 66 2.4 S 11 15 6 8 1024.1 - 0.0
18/01:30am 6.9 2.8 0.1 62 2.7 S 11 13 6 7 1024.2 - 0.0
18/01:00am 7.1 3.1 0.3 62 2.7 SSW 11 17 6 9 1024.3 - 0.0
18/12:30am 6.9 2.7 -0.8 58 3.0 SSW 11 13 6 7 1024.0 1023.8 0.0
18/12:00am 7.5 5.3 -1.7 52 3.5 CALM 0 7 0 4 1023.8 - 0.0
 
Date/Time
EST
Temp
°C
App
Temp
°C
Dew
Point
Rel
Hum
%
Delta-T
°C
Wind Press
QNH
hPa
Press
MSL
hPa
Rain
since 9 am
mm
Dir
 
Spd
km/h
Gust
km/h
Spd
kts
Gust
kts
17/11:30pm 8.5 5.1 -0.5 53 3.6 W 7 9 4 5 1023.7 - 0.0
17/11:00pm 9.9 6.2 -0.3 49 4.1 W 9 11 5 6 1023.5 - 0.0
17/10:30pm 10.0 6.7 0.1 50 4.1 W 7 9 4 5 1023.4 - 0.0
17/10:00pm 10.2 8.2 -0.3 48 4.3 CALM 0 0 0 0 1023.2 - 0.0
17/09:30pm 10.8 8.8 -0.3 46 4.5 CALM 0 0 0 0 1022.9 1022.7 0.0
17/09:00pm 10.7 7.5 -0.7 45 4.6 S 6 9 3 5 1022.6 - 0.0
17/08:30pm 11.4 8.0 -0.4 44 4.8 SSW 7 9 4 5 1022.4 - 0.0
17/08:00pm 11.4 7.2 -0.7 43 4.9 S 11 13 6 7 1021.8 - 0.0
17/07:30pm 12.3 8.1 -0.6 41 5.3 SSW 11 13 6 7 1021.5 - 0.0
17/07:00pm 14.2 9.3 -0.6 36 6.2 SSW 15 19 8 10 1021.0 - 0.0
17/06:30pm 15.7 10.0 -0.9 32 7.0 S 19 26 10 14 1020.7 1020.5 0.0
17/06:00pm 17.1 11.8 -0.6 30 7.6 SSW 17 30 9 16 1020.3 - 0.0
17/05:30pm 16.9 9.9 -0.3 31 7.5 SW 26 33 14 18 1020.2 - 0.0
17/05:00pm 18.3 10.9 -1.0 27 8.4 WSW 28 37 15 20 1019.8 - 0.0
17/04:45pm 19.1 11.3 -0.8 26 8.7 SW 30 61 16 33 1019.5 - 0.0
17/04:30pm 18.5 11.7 0.6 30 8.0 WSW 26 37 14 20 1019.7 - 0.0
17/04:00pm 19.0 11.5 1.1 30 8.1 SSW 30 43 16 23 1019.5 - 0.0
17/03:30pm 19.3 13.4 1.8 31 8.1 SW 22 30 12 16 1019.7 1019.4 0.0
17/03:00pm 17.1 10.7 1.1 34 7.2 SW 24 33 13 18 1019.7 - 0.0
17/02:30pm 18.0 12.1 1.5 33 7.5 SW 22 37 12 20 1019.8 - 0.0
17/02:00pm 17.3 12.0 2.1 36 7.0 SSW 19 30 10 16 1019.9 - 0.0
17/01:30pm 16.3 10.3 1.2 36 6.7 S 22 32 12 17 1020.1 - 0.0
17/01:00pm 16.5 11.0 1.8 37 6.6 SW 20 30 11 16 1020.3 - 0.0
17/12:30pm 17.5 11.3 1.9 35 7.1 SW 24 35 13 19 1020.5 1020.3 0.0

Other Formats:

Comma delimited format used in spreadsheet applications
http://www.bom.gov.au/fwo/IDN60801/IDN60801.94691.axf

JavaScript Object Notation format (JSON) in row-major order
http://www.bom.gov.au/fwo/IDN60801/IDN60801.94691.json